Private Wetterstation Sandau
Wetterdaten: Woche 21.05.12 - 27.05.12 (KW21)
Datum Zeit Temp. A. Feuchte A. Luftdruck Regen Wind Richtung Taupunkt Windchill
21.05.2012 00:00 18,9 C 52 % 1006,6 hPa 0,0 l/m 5,5 km/h (1 Bft) O-NO 8,7 C 18,9 C
21.05.2012 01:00 18,0 C 55 % 1006,2 hPa 0,0 l/m 5,3 km/h (1 Bft) O-NO 8,8 C 18,0 C
21.05.2012 02:00 17,4 C 58 % 1006,0 hPa 0,0 l/m 4,8 km/h (1 Bft) O-NO 9,2 C 17,4 C
21.05.2012 03:00 16,7 C 62 % 1005,6 hPa 0,0 l/m 5,9 km/h (2 Bft) O-NO 9,4 C 16,7 C
21.05.2012 04:00 16,0 C 65 % 1004,9 hPa 0,0 l/m 6,1 km/h (2 Bft) O-NO 9,5 C 16,0 C
21.05.2012 05:00 15,5 C 67 % 1004,6 hPa 0,0 l/m 5,9 km/h (2 Bft) O-NO 9,4 C 15,5 C
21.05.2012 06:00 15,7 C 68 % 1004,5 hPa 0,0 l/m 8,2 km/h (2 Bft) O-NO 9,8 C 15,7 C
21.05.2012 07:00 18,0 C 63 % 1004,3 hPa 0,0 l/m 7,3 km/h (2 Bft) O 10,8 C 18,0 C
21.05.2012 08:00 20,2 C 58 % 1004,1 hPa 0,0 l/m 8,0 km/h (2 Bft) O 11,5 C 20,2 C
21.05.2012 09:00 21,5 C 55 % 1004,0 hPa 0,0 l/m 7,9 km/h (2 Bft) O-NO 12,1 C 21,5 C
21.05.2012 10:00 23,3 C 50 % 1003,4 hPa 0,0 l/m 9,1 km/h (2 Bft) O 12,3 C 23,3 C
21.05.2012 11:00 24,2 C 48 % 1003,4 hPa 0,0 l/m 12,0 km/h (2 Bft) O 12,5 C 24,2 C
21.05.2012 12:00 25,2 C 47 % 1003,3 hPa 0,0 l/m 10,7 km/h (2 Bft) O 13,0 C 25,2 C
21.05.2012 13:00 26,5 C 45 % 1003,0 hPa 0,0 l/m 11,8 km/h (2 Bft) SO 13,4 C 26,5 C
21.05.2012 14:00 26,6 C 43 % 1003,2 hPa 0,0 l/m 9,0 km/h (2 Bft) SO 13,1 C 26,6 C
21.05.2012 15:00 26,4 C 45 % 1003,1 hPa 0,0 l/m 8,1 km/h (2 Bft) O 13,6 C 26,4 C
21.05.2012 16:00 27,4 C 43 % 1003,3 hPa 0,0 l/m 10,0 km/h (2 Bft) O 13,7 C 27,4 C
21.05.2012 17:00 27,4 C 44 % 1003,1 hPa 0,0 l/m 8,2 km/h (2 Bft) O-NO 14,1 C 27,4 C
21.05.2012 18:00 27,0 C 45 % 1003,0 hPa 0,0 l/m 8,6 km/h (2 Bft) O 14,1 C 27,0 C
21.05.2012 19:00 26,0 C 48 % 1002,9 hPa 0,0 l/m 6,5 km/h (2 Bft) O-NO 14,2 C 26,0 C
21.05.2012 20:00 25,0 C 49 % 1003,3 hPa 0,0 l/m 6,2 km/h (2 Bft) O 13,4 C 25,0 C
21.05.2012 21:00 23,7 C 49 % 1004,0 hPa 0,0 l/m 6,1 km/h (2 Bft) O 12,2 C 23,7 C
21.05.2012 22:00 22,5 C 52 % 1004,5 hPa 0,0 l/m 6,3 km/h (2 Bft) O-NO 12,2 C 22,5 C
21.05.2012 23:00 21,4 C 56 % 1004,9 hPa 0,0 l/m 3,2 km/h (1 Bft) O 12,2 C 21,4 C
22.05.2012 00:00 20,9 C 57 % 1005,1 hPa 0,0 l/m 5,0 km/h (1 Bft) O-NO 12,1 C 20,9 C
22.05.2012 01:00 20,5 C 58 % 1005,4 hPa 0,0 l/m 5,8 km/h (2 Bft) O-NO 11,9 C 20,5 C
22.05.2012 02:00 19,3 C 62 % 1005,8 hPa 0,0 l/m 6,5 km/h (2 Bft) O 11,8 C 19,3 C
22.05.2012 03:00 18,7 C 65 % 1006,0 hPa 0,0 l/m 4,8 km/h (1 Bft) O 12,0 C 18,7 C
22.05.2012 04:00 18,3 C 66 % 1006,2 hPa 0,0 l/m 5,9 km/h (2 Bft) O 12,0 C 18,3 C
22.05.2012 05:00 17,8 C 68 % 1006,5 hPa 0,0 l/m 5,6 km/h (1 Bft) O-NO 11,8 C 17,8 C
22.05.2012 06:00 18,3 C 68 % 1007,1 hPa 0,0 l/m 2,6 km/h (1 Bft) O-NO 12,3 C 18,3 C
22.05.2012 07:00 19,7 C 66 % 1007,5 hPa 0,0 l/m 3,7 km/h (1 Bft) O-SO 13,0 C 19,7 C
22.05.2012 08:00 21,3 C 63 % 1008,2 hPa 0,0 l/m 4,0 km/h (1 Bft) O-SO 13,9 C 21,3 C
22.05.2012 09:00 23,6 C 57 % 1008,8 hPa 0,0 l/m 6,6 km/h (2 Bft) O 14,6 C 23,6 C
22.05.2012 10:00 25,9 C 50 % 1008,8 hPa 0,0 l/m 7,0 km/h (2 Bft) O 14,6 C 25,9 C
22.05.2012 11:00 27,4 C 44 % 1009,1 hPa 0,0 l/m 8,7 km/h (2 Bft) O 14,2 C 27,4 C
22.05.2012 12:00 28,6 C 40 % 1009,3 hPa 0,0 l/m 10,0 km/h (2 Bft) O-SO 13,7 C 28,6 C
22.05.2012 13:00 29,6 C 36 % 1009,5 hPa 0,0 l/m 9,8 km/h (2 Bft) O-SO 13,1 C 29,6 C
22.05.2012 14:00 30,4 C 35 % 1009,6 hPa 0,0 l/m 8,8 km/h (2 Bft) O 13,0 C 30,4 C
22.05.2012 15:00 29,0 C 38 % 1009,9 hPa 0,0 l/m 4,8 km/h (1 Bft) NO 13,3 C 29,0 C
22.05.2012 16:00 29,9 C 36 % 1010,2 hPa 0,0 l/m 2,7 km/h (1 Bft) O-NO 13,2 C 29,9 C
22.05.2012 17:00 31,1 C 33 % 1010,2 hPa 0,0 l/m 5,5 km/h (1 Bft) O-NO 13,0 C 31,1 C
22.05.2012 18:00 27,6 C 44 % 1010,9 hPa 0,0 l/m 8,5 km/h (2 Bft) NO 14,2 C 27,6 C
22.05.2012 19:00 26,0 C 46 % 1011,5 hPa 0,0 l/m 5,3 km/h (1 Bft) N-NO 13,4 C 26,0 C
22.05.2012 20:00 25,1 C 54 % 1012,1 hPa 0,0 l/m 6,0 km/h (2 Bft) NO 15,1 C 25,1 C
22.05.2012 21:00 24,2 C 60 % 1013,1 hPa 0,0 l/m 4,1 km/h (1 Bft) N-NO 15,8 C 24,2 C
22.05.2012 22:00 22,9 C 63 % 1013,7 hPa 0,0 l/m 4,5 km/h (1 Bft) NO 15,5 C 22,9 C
22.05.2012 23:00 21,5 C 67 % 1014,4 hPa 0,0 l/m 3,4 km/h (1 Bft) NO 15,1 C 21,5 C
23.05.2012 00:00 20,2 C 69 % 1015,0 hPa 0,0 l/m 3,7 km/h (1 Bft) O 14,4 C 20,2 C
23.05.2012 01:00 18,5 C 70 % 1015,5 hPa 0,0 l/m 4,1 km/h (1 Bft) O 12,9 C 18,5 C
23.05.2012 02:00 17,3 C 73 % 1015,8 hPa 0,0 l/m 3,0 km/h (1 Bft) N-NO 12,4 C 17,3 C
23.05.2012 03:00 17,0 C 74 % 1016,6 hPa 0,0 l/m 1,5 km/h (1 Bft) N-NO 12,4 C 17,0 C
23.05.2012 04:00 16,2 C 77 % 1017,1 hPa 0,0 l/m 2,0 km/h (1 Bft) N-NO 12,1 C 16,2 C
23.05.2012 05:00 15,9 C 79 % 1017,8 hPa 0,0 l/m 2,5 km/h (1 Bft) N-NO 12,2 C 15,9 C
23.05.2012 06:00 16,6 C 78 % 1018,4 hPa 0,0 l/m 4,1 km/h (1 Bft) O-NO 12,7 C 16,6 C
23.05.2012 07:00 19,0 C 72 % 1018,7 hPa 0,0 l/m 3,9 km/h (1 Bft) O-NO 13,9 C 19,0 C
23.05.2012 08:00 20,9 C 66 % 1019,3 hPa 0,0 l/m 5,5 km/h (1 Bft) O-NO 14,4 C 20,9 C
23.05.2012 09:00 22,1 C 63 % 1020,2 hPa 0,0 l/m 5,1 km/h (1 Bft) O 14,8 C 22,1 C
23.05.2012 10:00 23,7 C 60 % 1020,9 hPa 0,0 l/m 6,1 km/h (2 Bft) O-NO 15,4 C 23,7 C
23.05.2012 11:00 25,8 C 55 % 1021,2 hPa 0,0 l/m 4,9 km/h (1 Bft) NO 16,0 C 25,8 C
23.05.2012 12:00 27,8 C 48 % 1021,4 hPa 0,0 l/m 6,6 km/h (2 Bft) O-NO 15,7 C 27,8 C
23.05.2012 13:00 28,9 C 47 % 1021,4 hPa 0,0 l/m 6,0 km/h (2 Bft) O-NO 16,4 C 28,9 C
23.05.2012 14:00 30,1 C 43 % 1021,5 hPa 0,0 l/m 8,1 km/h (2 Bft) O-NO 16,1 C 30,1 C
23.05.2012 15:00 30,5 C 40 % 1021,5 hPa 0,0 l/m 11,2 km/h (2 Bft) NO 15,2 C 30,5 C
23.05.2012 16:00 29,9 C 42 % 1021,7 hPa 0,0 l/m 10,5 km/h (2 Bft) O 15,4 C 29,9 C
23.05.2012 17:00 29,2 C 43 % 1022,3 hPa 0,0 l/m 13,3 km/h (3 Bft) O-NO 15,1 C 29,2 C
23.05.2012 18:00 27,3 C 47 % 1023,0 hPa 0,0 l/m 14,7 km/h (3 Bft) O 15,0 C 27,3 C
23.05.2012 19:00 25,2 C 47 % 1023,7 hPa 0,0 l/m 14,0 km/h (3 Bft) O-NO 13,0 C 25,2 C
23.05.2012 20:00 23,0 C 50 % 1024,3 hPa 0,0 l/m 10,7 km/h (2 Bft) NO 11,9 C 23,0 C
23.05.2012 21:00 21,1 C 55 % 1025,0 hPa 0,0 l/m 9,3 km/h (2 Bft) O-NO 11,8 C 21,1 C
23.05.2012 22:00 19,5 C 61 % 1025,7 hPa 0,0 l/m 8,6 km/h (2 Bft) O-NO 11,7 C 19,5 C
23.05.2012 23:00 18,3 C 62 % 1026,4 hPa 0,0 l/m 6,6 km/h (2 Bft) O 10,9 C 18,3 C
24.05.2012 00:00 17,5 C 62 % 1026,8 hPa 0,0 l/m 4,1 km/h (1 Bft) NO 10,0 C 17,5 C
24.05.2012 01:00 16,7 C 60 % 1027,0 hPa 0,0 l/m 6,2 km/h (2 Bft) O-NO 9,0 C 16,7 C
24.05.2012 02:00 15,7 C 59 % 1027,3 hPa 0,0 l/m 6,5 km/h (2 Bft) O 7,7 C 15,7 C
24.05.2012 03:00 14,8 C 58 % 1027,6 hPa 0,0 l/m 6,7 km/h (2 Bft) O-NO 6,6 C 14,8 C
24.05.2012 04:00 14,0 C 57 % 1027,8 hPa 0,0 l/m 5,3 km/h (1 Bft) O-NO 5,6 C 14,0 C
24.05.2012 05:00 13,4 C 58 % 1028,4 hPa 0,0 l/m 5,3 km/h (1 Bft) O-NO 5,4 C 13,4 C
24.05.2012 06:00 14,9 C 55 % 1028,8 hPa 0,0 l/m 5,6 km/h (1 Bft) O-NO 6,0 C 14,9 C
24.05.2012 07:00 15,8 C 54 % 1029,2 hPa 0,0 l/m 6,6 km/h (2 Bft) O-NO 6,6 C 15,8 C
24.05.2012 08:00 17,4 C 52 % 1029,7 hPa 0,0 l/m 5,7 km/h (1 Bft) O-NO 7,4 C 17,4 C
24.05.2012 09:00 19,2 C 47 % 1029,9 hPa 0,0 l/m 8,8 km/h (2 Bft) O-NO 7,5 C 19,2 C
24.05.2012 10:00 20,8 C 40 % 1030,0 hPa 0,0 l/m 9,9 km/h (2 Bft) O 6,8 C 20,8 C
24.05.2012 11:00 22,5 C 33 % 1030,0 hPa 0,0 l/m 15,2 km/h (3 Bft) O 5,5 C 22,5 C
24.05.2012 12:00 23,6 C 31 % 1029,9 hPa 0,0 l/m 11,7 km/h (2 Bft) O 5,6 C 23,6 C
24.05.2012 13:00 24,6 C 31 % 1029,6 hPa 0,0 l/m 12,1 km/h (2 Bft) O-NO 6,4 C 24,6 C
24.05.2012 14:00 25,2 C 31 % 1029,3 hPa 0,0 l/m 12,0 km/h (2 Bft) NO 6,9 C 25,2 C
24.05.2012 15:00 25,1 C 29 % 1029,1 hPa 0,0 l/m 14,9 km/h (3 Bft) O-NO 5,8 C 25,1 C
24.05.2012 16:00 25,1 C 28 % 1028,9 hPa 0,0 l/m 12,1 km/h (2 Bft) O-NO 5,4 C 25,1 C
24.05.2012 17:00 24,3 C 28 % 1029,0 hPa 0,0 l/m 13,5 km/h (3 Bft) O-NO 4,5 C 24,3 C
24.05.2012 18:00 23,4 C 29 % 1029,0 hPa 0,0 l/m 11,1 km/h (2 Bft) O-NO 4,3 C 23,4 C
24.05.2012 19:00 22,1 C 31 % 1029,2 hPa 0,0 l/m 13,1 km/h (3 Bft) NO 4,2 C 22,1 C
24.05.2012 20:00 20,2 C 35 % 1029,6 hPa 0,0 l/m 12,3 km/h (3 Bft) O-NO 4,1 C 20,2 C
24.05.2012 21:00 18,2 C 36 % 1029,9 hPa 0,0 l/m 9,1 km/h (2 Bft) O-NO 2,9 C 18,2 C
24.05.2012 22:00 16,8 C 38 % 1030,4 hPa 0,0 l/m 6,1 km/h (2 Bft) O-NO 2,5 C 16,8 C
24.05.2012 23:00 15,6 C 42 % 1030,7 hPa 0,0 l/m 6,4 km/h (2 Bft) O-NO 2,7 C 15,6 C
25.05.2012 00:00 14,4 C 45 % 1030,8 hPa 0,0 l/m 7,7 km/h (2 Bft) O-NO 2,7 C 14,4 C
25.05.2012 01:00 13,6 C 48 % 1030,9 hPa 0,0 l/m 6,3 km/h (2 Bft) NO 2,7 C 13,6 C
25.05.2012 02:00 13,2 C 48 % 1030,8 hPa 0,0 l/m 4,5 km/h (1 Bft) N-NO 2,5 C 13,2 C
25.05.2012 03:00 12,6 C 50 % 1030,8 hPa 0,0 l/m 2,2 km/h (1 Bft) N-NO 2,4 C 12,6 C
25.05.2012 04:00 11,9 C 53 % 1030,6 hPa 0,0 l/m 1,9 km/h (1 Bft) N-NO 2,7 C 11,9 C
25.05.2012 05:00 11,2 C 58 % 1030,7 hPa 0,0 l/m 3,9 km/h (1 Bft) N-NO 3,1 C 11,2 C
25.05.2012 06:00 13,8 C 53 % 1030,6 hPa 0,0 l/m 3,9 km/h (1 Bft) NO 4,4 C 13,8 C
25.05.2012 07:00 14,8 C 51 % 1030,7 hPa 0,0 l/m 6,0 km/h (2 Bft) O-NO 4,7 C 14,8 C
25.05.2012 08:00 16,2 C 46 % 1030,6 hPa 0,0 l/m 5,0 km/h (1 Bft) O 4,7 C 16,2 C
25.05.2012 09:00 17,9 C 41 % 1030,5 hPa 0,0 l/m 7,1 km/h (2 Bft) O 4,4 C 17,9 C
25.05.2012 10:00 19,4 C 36 % 1030,3 hPa 0,0 l/m 6,5 km/h (2 Bft) O 4,0 C 19,4 C
25.05.2012 11:00 20,8 C 33 % 1030,0 hPa 0,0 l/m 6,7 km/h (2 Bft) O-NO 3,7 C 20,8 C
25.05.2012 12:00 22,1 C 30 % 1029,5 hPa 0,0 l/m 6,0 km/h (2 Bft) O-SO 3,9 C 22,1 C
25.05.2012 13:00 23,4 C 28 % 1028,8 hPa 0,0 l/m 9,1 km/h (2 Bft) O-SO 4,0 C 23,4 C
25.05.2012 14:00 24,3 C 27 % 1028,2 hPa 0,0 l/m 9,8 km/h (2 Bft) O-NO 3,9 C 24,3 C
25.05.2012 15:00 24,8 C 27 % 1027,6 hPa 0,0 l/m 9,4 km/h (2 Bft) O-NO 4,5 C 24,8 C
25.05.2012 16:00 24,6 C 27 % 1026,9 hPa 0,0 l/m 12,2 km/h (2 Bft) O 4,3 C 24,6 C
25.05.2012 17:00 24,4 C 26 % 1026,4 hPa 0,0 l/m 10,5 km/h (2 Bft) O-NO 3,7 C 24,4 C
25.05.2012 18:00 23,7 C 25 % 1026,1 hPa 0,0 l/m 10,8 km/h (2 Bft) O-NO 2,7 C 23,7 C
25.05.2012 19:00 22,2 C 28 % 1026,1 hPa 0,0 l/m 10,4 km/h (2 Bft) O-NO 2,5 C 22,2 C
25.05.2012 20:00 20,2 C 30 % 1026,1 hPa 0,0 l/m 8,2 km/h (2 Bft) O-NO 2,0 C 20,2 C
25.05.2012 21:00 17,9 C 33 % 1026,3 hPa 0,0 l/m 6,5 km/h (2 Bft) O-NO 1,5 C 17,9 C
25.05.2012 22:00 16,2 C 38 % 1026,5 hPa 0,0 l/m 5,7 km/h (1 Bft) O-NO 1,9 C 16,2 C
25.05.2012 23:00 15,2 C 43 % 1026,7 hPa 0,0 l/m 3,2 km/h (1 Bft) O-NO 2,7 C 15,2 C
26.05.2012 00:00 14,3 C 48 % 1026,8 hPa 0,0 l/m 2,6 km/h (1 Bft) O-NO 3,4 C 14,3 C
26.05.2012 01:00 13,4 C 53 % 1026,6 hPa 0,0 l/m 5,1 km/h (1 Bft) O-NO 4,1 C 13,4 C
26.05.2012 02:00 12,6 C 57 % 1026,5 hPa 0,0 l/m 6,0 km/h (2 Bft) O-NO 4,3 C 12,6 C
26.05.2012 03:00 12,0 C 58 % 1026,4 hPa 0,0 l/m 5,6 km/h (1 Bft) O 4,0 C 12,0 C
26.05.2012 04:00 11,6 C 58 % 1026,3 hPa 0,0 l/m 5,2 km/h (1 Bft) O-NO 3,7 C 11,6 C
26.05.2012 05:00 11,2 C 62 % 1026,2 hPa 0,0 l/m 3,0 km/h (1 Bft) O-NO 4,2 C 11,2 C
26.05.2012 06:00 13,4 C 59 % 1026,4 hPa 0,0 l/m 4,8 km/h (1 Bft) O 5,5 C 13,4 C
26.05.2012 07:00 14,0 C 57 % 1026,5 hPa 0,0 l/m 6,4 km/h (2 Bft) O-NO 5,5 C 14,0 C
26.05.2012 08:00 15,8 C 52 % 1026,6 hPa 0,0 l/m 6,2 km/h (2 Bft) O 6,0 C 15,8 C
26.05.2012 09:00 17,8 C 49 % 1026,5 hPa 0,0 l/m 5,0 km/h (1 Bft) O-SO 6,9 C 17,8 C
26.05.2012 10:00 19,5 C 45 % 1026,5 hPa 0,0 l/m 7,1 km/h (2 Bft) O-SO 7,3 C 19,5 C
26.05.2012 11:00 21,1 C 38 % 1026,2 hPa 0,0 l/m 5,9 km/h (2 Bft) O-NO 6,3 C 21,1 C
26.05.2012 12:00 22,6 C 32 % 1025,7 hPa 0,0 l/m 5,8 km/h (2 Bft) O 4,9 C 22,6 C
26.05.2012 13:00 23,8 C 28 % 1025,1 hPa 0,0 l/m 5,4 km/h (1 Bft) O-SO 4,1 C 23,8 C
26.05.2012 14:00 25,1 C 24 % 1024,5 hPa 0,0 l/m 5,2 km/h (1 Bft) O 3,2 C 25,1 C
26.05.2012 15:00 25,3 C 24 % 1024,1 hPa 0,0 l/m 5,6 km/h (1 Bft) O-NO 3,1 C 25,3 C
26.05.2012 16:00 25,8 C 23 % 1023,6 hPa 0,0 l/m 5,1 km/h (1 Bft) O 3,3 C 25,8 C
26.05.2012 17:00 25,4 C 25 % 1023,2 hPa 0,0 l/m 8,4 km/h (2 Bft) O-NO 3,9 C 25,4 C
26.05.2012 18:00 24,6 C 28 % 1022,9 hPa 0,0 l/m 9,5 km/h (2 Bft) NO 5,0 C 24,6 C
26.05.2012 19:00 23,2 C 32 % 1023,0 hPa 0,0 l/m 8,5 km/h (2 Bft) O-NO 5,6 C 23,2 C
26.05.2012 20:00 22,0 C 35 % 1023,0 hPa 0,5 l/m 6,0 km/h (2 Bft) O 5,7 C 22,0 C
26.05.2012 21:00 20,6 C 37 % 1023,3 hPa 0,0 l/m 4,3 km/h (1 Bft) O-NO 5,3 C 20,6 C
26.05.2012 22:00 19,5 C 39 % 1023,6 hPa 0,0 l/m 4,1 km/h (1 Bft) O-NO 5,0 C 19,5 C
26.05.2012 23:00 18,5 C 41 % 1023,7 hPa 0,0 l/m 5,6 km/h (1 Bft) O-NO 5,1 C 18,5 C
27.05.2012 00:00 17,4 C 48 % 1023,5 hPa 0,0 l/m 0,0 km/h (0 Bft) N 6,4 C 17,4 C
27.05.2012 01:00 16,7 C 51 % 1023,3 hPa 0,0 l/m 0,0 km/h (0 Bft) N 6,6 C 16,7 C
27.05.2012 02:00 16,1 C 52 % 1023,3 hPa 0,0 l/m 0,0 km/h (0 Bft) N 6,4 C 16,1 C
27.05.2012 03:00 15,4 C 53 % 1023,2 hPa 0,0 l/m 0,0 km/h (0 Bft) N 6,0 C 15,4 C
27.05.2012 04:00 14,7 C 54 % 1023,1 hPa 0,0 l/m 0,0 km/h (0 Bft) N 5,6 C 14,7 C
27.05.2012 05:00 14,3 C 56 % 1022,9 hPa 0,0 l/m 0,0 km/h (0 Bft) N 5,7 C 14,3 C
27.05.2012 06:00 14,9 C 55 % 1022,8 hPa 0,0 l/m 0,3 km/h (0 Bft) NO 6,0 C 14,9 C
27.05.2012 07:00 15,8 C 54 % 1023,1 hPa 0,0 l/m 0,0 km/h (0 Bft) N 6,4 C 15,8 C
27.05.2012 08:00 17,5 C 51 % 1023,2 hPa 0,0 l/m 1,2 km/h (1 Bft) O 7,1 C 17,5 C
27.05.2012 09:00 19,1 C 48 % 1022,9 hPa 0,0 l/m 0,7 km/h (0 Bft) O 7,7 C 19,1 C
27.05.2012 10:00 20,6 C 45 % 1022,6 hPa 0,0 l/m 0,0 km/h (0 Bft) N 8,4 C 20,6 C
27.05.2012 11:00 22,2 C 42 % 1022,2 hPa 0,0 l/m 2,5 km/h (1 Bft) O-SO 8,7 C 22,2 C
27.05.2012 12:00 23,4 C 38 % 1021,7 hPa 0,0 l/m 5,9 km/h (2 Bft) SO 8,4 C 23,4 C
27.05.2012 13:00 24,6 C 36 % 1021,2 hPa 0,0 l/m 5,3 km/h (1 Bft) O 8,7 C 24,6 C
27.05.2012 14:00 25,6 C 34 % 1020,5 hPa 0,0 l/m 5,1 km/h (1 Bft) SO 8,6 C 25,6 C
27.05.2012 15:00 25,0 C 35 % 1019,8 hPa 0,0 l/m 2,7 km/h (1 Bft) NO 8,5 C 25,0 C
27.05.2012 16:00 25,3 C 35 % 1019,4 hPa 0,0 l/m 4,8 km/h (1 Bft) N-NO 8,6 C 25,3 C
27.05.2012 17:00 24,4 C 36 % 1018,9 hPa 0,0 l/m 5,7 km/h (1 Bft) NO 8,4 C 24,4 C
27.05.2012 18:00 23,9 C 38 % 1018,5 hPa 0,0 l/m 6,6 km/h (2 Bft) O-NO 8,6 C 23,9 C
27.05.2012 19:00 23,9 C 37 % 1018,1 hPa 0,0 l/m 4,3 km/h (1 Bft) O 8,5 C 23,9 C
27.05.2012 20:00 22,6 C 41 % 1017,8 hPa 0,0 l/m 3,9 km/h (1 Bft) O-NO 8,7 C 22,6 C
27.05.2012 21:00 20,8 C 46 % 1017,7 hPa 0,0 l/m 3,3 km/h (1 Bft) O-NO 8,6 C 20,8 C
27.05.2012 22:00 18,6 C 53 % 1017,9 hPa 0,0 l/m 5,0 km/h (1 Bft) O-NO 8,9 C 18,6 C
27.05.2012 23:00 17,3 C 55 % 1018,1 hPa 0,0 l/m 4,0 km/h (1 Bft) O 8,2 C 17,3 C
Min-Datum _ 25.05.12 26.05.12 21.05.12 - 21.05.12 - 25.05.12 25.05.12
_ Min-Zeit 05:21 15:01 19:16 - 20:51 - 20:56 05:21
Minimum _ 10,7 C 23 % 1002,8 hPa - 0,0 km/h (0 Bft) - 1,1 C 10,7 C
Max-Datum _ 22.05.12 23.05.12 25.05.12 26.05.12 24.05.12 - 23.05.12 22.05.12
_ Max-Zeit 16:56 05:06 01:56 20:41 11:51 - 14:01 16:56
Maximum _ 31,3 C 79 % 1031,0 hPa 0,5 l/m 32,4 km/h
O (5 Bft)
- 17,0 C 31,3 C
Durchschnitt _ 20,8 C 48 % 1019,7 hPa #0,5 l/m 6,4 km/h (2 Bft) O-NO 8,7 C 20,8 C
(c) by David Heller